createdAt,value
2023-03-08T00:01:14.211Z,6.25
2023-03-08T00:03:41.885Z,6.80
2023-03-08T00:06:10.028Z,6.95
2023-03-08T00:08:37.162Z,6.50
2023-03-08T00:11:08.346Z,5.53
2023-03-08T00:13:35.793Z,6.60
2023-03-08T00:16:03.839Z,6.80
2023-03-08T00:18:31.027Z,6.28
2023-03-08T00:21:11.948Z,5.85
2023-03-08T00:23:39.116Z,6.40
2023-03-08T00:26:06.315Z,6.28
2023-03-08T00:28:33.480Z,6.35
2023-03-08T00:31:11.661Z,6.55
2023-03-08T00:33:38.846Z,6.78
2023-03-08T00:36:07.429Z,7.22
2023-03-08T00:38:35.692Z,6.28
2023-03-08T00:41:03.106Z,6.10
2023-03-08T00:43:30.471Z,5.95
2023-03-08T00:45:57.822Z,6.57
2023-03-08T00:48:24.896Z,6.47
2023-03-08T00:50:52.027Z,6.43
2023-03-08T00:53:19.340Z,5.85
2023-03-08T00:55:50.451Z,6.72
2023-03-08T00:58:17.963Z,7.13
2023-03-08T01:00:45.298Z,6.00
2023-03-08T01:03:12.611Z,6.60
2023-03-08T01:05:43.581Z,7.40
2023-03-08T01:08:10.882Z,7.00
2023-03-08T01:10:37.985Z,5.88
2023-03-08T01:13:06.223Z,6.18
2023-03-08T01:15:37.366Z,7.25
2023-03-08T01:18:05.120Z,7.40
2023-03-08T01:20:32.311Z,6.47
2023-03-08T01:22:59.452Z,6.50
2023-03-08T01:25:26.543Z,6.95
2023-03-08T01:27:53.664Z,6.15
2023-03-08T01:30:20.857Z,6.88
2023-03-08T01:32:48.017Z,7.45
2023-03-08T01:35:15.276Z,7.22
2023-03-08T01:37:42.380Z,6.45
2023-03-08T01:40:09.930Z,7.63
2023-03-08T01:42:38.675Z,7.05
2023-03-08T01:45:07.164Z,7.38
2023-03-08T01:47:38.808Z,7.75
2023-03-08T01:50:10.696Z,7.17
2023-03-08T01:52:46.606Z,7.35
2023-03-08T01:55:15.884Z,8.10
2023-03-08T01:57:45.555Z,7.72
2023-03-08T02:00:17.327Z,7.40
2023-03-08T02:02:48.952Z,7.65
2023-03-08T02:05:17.015Z,7.77
2023-03-08T02:07:44.228Z,7.25
2023-03-08T02:10:12.541Z,7.55
2023-03-08T02:12:40.370Z,7.68
2023-03-08T02:15:09.105Z,7.05
2023-03-08T02:17:37.909Z,7.47
2023-03-08T02:20:14.701Z,6.65
2023-03-08T02:22:45.819Z,8.00
2023-03-08T02:25:20.650Z,7.68
2023-03-08T02:27:48.018Z,7.63
2023-03-08T02:30:17.017Z,6.45
2023-03-08T02:32:44.226Z,7.45
2023-03-08T02:35:11.857Z,7.30
2023-03-08T02:37:39.004Z,6.60
2023-03-08T02:40:06.534Z,8.50
2023-03-08T02:42:33.627Z,6.63
2023-03-08T02:45:00.735Z,7.00
2023-03-08T02:47:27.881Z,7.13
2023-03-08T02:49:54.968Z,8.50
2023-03-08T02:52:22.584Z,9.57
2023-03-08T02:54:49.697Z,7.80
2023-03-08T02:57:16.837Z,8.13
2023-03-08T02:59:43.899Z,7.88
2023-03-08T03:02:11.028Z,8.18
2023-03-08T03:04:38.341Z,7.90
2023-03-08T03:07:05.530Z,7.70
2023-03-08T03:09:34.938Z,6.55
2023-03-08T03:12:02.081Z,8.18
2023-03-08T03:14:29.427Z,8.38
2023-03-08T03:16:56.775Z,7.78
2023-03-08T03:19:23.901Z,9.95
2023-03-08T03:21:51.136Z,7.68
2023-03-08T03:24:18.347Z,7.63
2023-03-08T03:26:45.401Z,10.27
2023-03-08T03:29:12.691Z,31.75
2023-03-08T03:31:39.866Z,19.63
2023-03-08T03:34:06.997Z,8.65
2023-03-08T03:36:34.485Z,7.60
2023-03-08T03:39:01.590Z,9.10
2023-03-08T03:41:28.687Z,8.18
2023-03-08T03:43:55.796Z,7.70
2023-03-08T03:46:23.327Z,8.43
2023-03-08T03:48:50.547Z,7.40
2023-03-08T03:51:18.594Z,7.22
2023-03-08T03:53:46.021Z,7.60
2023-03-08T03:56:14.640Z,7.80
2023-03-08T03:58:42.276Z,7.75
2023-03-08T04:01:10.488Z,7.72
2023-03-08T04:03:37.672Z,7.60
2023-03-08T04:06:08.899Z,8.10
2023-03-08T04:08:41.997Z,7.75
2023-03-08T04:11:13.194Z,7.95
2023-03-08T04:13:40.314Z,8.45
2023-03-08T04:16:17.867Z,9.20
2023-03-08T04:18:45.488Z,8.55
2023-03-08T04:21:12.819Z,7.75
2023-03-08T04:23:40.336Z,8.05
2023-03-08T04:26:07.918Z,8.00
2023-03-08T04:28:35.346Z,8.70
2023-03-08T04:31:12.101Z,7.85
2023-03-08T04:33:39.372Z,8.90
2023-03-08T04:36:06.577Z,8.45
2023-03-08T04:38:33.776Z,8.30
2023-03-08T04:41:10.164Z,9.60
2023-03-08T04:43:37.604Z,7.82
2023-03-08T04:46:04.778Z,8.65
2023-03-08T04:48:32.099Z,8.77
2023-03-08T04:51:00.810Z,8.30
2023-03-08T04:53:29.011Z,8.93
2023-03-08T04:55:56.224Z,7.70
2023-03-08T04:58:23.813Z,8.60
2023-03-08T05:00:50.965Z,8.55
2023-03-08T05:03:18.284Z,8.80
2023-03-08T05:05:49.754Z,10.10
2023-03-08T05:08:17.116Z,8.25
2023-03-08T05:10:48.390Z,9.32
2023-03-08T05:13:15.617Z,8.85
2023-03-08T05:15:43.173Z,11.05
2023-03-08T05:18:10.348Z,11.57
2023-03-08T05:20:37.745Z,10.23
2023-03-08T05:23:04.911Z,17.23
2023-03-08T05:25:32.339Z,12.15
2023-03-08T05:27:59.495Z,12.80
2023-03-08T05:30:26.795Z,13.25
2023-03-08T05:32:53.940Z,10.82
2023-03-08T05:35:21.061Z,11.82
2023-03-08T05:37:48.212Z,16.13
2023-03-08T05:40:15.315Z,10.75
2023-03-08T05:42:42.613Z,11.98
2023-03-08T05:45:10.032Z,11.50
2023-03-08T05:47:37.184Z,13.25
2023-03-08T05:50:04.389Z,11.95
2023-03-08T05:52:34.479Z,10.32
2023-03-08T05:55:01.869Z,11.23
2023-03-08T05:57:29.257Z,9.32
2023-03-08T05:59:56.357Z,9.70
2023-03-08T06:02:23.532Z,10.23
2023-03-08T06:04:50.741Z,9.45
2023-03-08T06:07:18.133Z,9.15
2023-03-08T06:09:45.251Z,8.68
2023-03-08T06:12:12.310Z,9.73
2023-03-08T06:14:39.440Z,8.65
2023-03-08T06:17:06.527Z,12.15
2023-03-08T06:19:33.715Z,11.55
2023-03-08T06:22:00.844Z,11.23
2023-03-08T06:24:28.015Z,9.63
2023-03-08T06:26:56.180Z,8.15
2023-03-08T06:29:23.430Z,7.00
2023-03-08T06:31:50.517Z,7.03
2023-03-08T06:34:22.713Z,7.25
2023-03-08T06:36:54.688Z,7.40
2023-03-08T06:39:22.324Z,7.30
2023-03-08T06:41:49.459Z,6.88
2023-03-08T06:44:16.578Z,7.80
2023-03-08T06:46:43.836Z,7.10
2023-03-08T06:49:10.923Z,7.50
2023-03-08T06:51:38.082Z,8.40
2023-03-08T06:54:05.171Z,7.18
2023-03-08T06:56:32.253Z,7.47
2023-03-08T06:58:59.526Z,7.15
2023-03-08T07:01:26.708Z,8.13
2023-03-08T07:03:53.879Z,7.07
2023-03-08T07:06:21.036Z,8.27
2023-03-08T07:08:48.203Z,9.57
2023-03-08T07:11:15.323Z,10.05
2023-03-08T07:13:43.211Z,11.18
2023-03-08T07:16:11.362Z,11.30
2023-03-08T07:18:38.924Z,10.77
2023-03-08T07:21:06.507Z,10.85
2023-03-08T07:23:33.807Z,11.05
2023-03-08T07:26:00.897Z,10.57
2023-03-08T07:28:28.060Z,10.45
2023-03-08T07:30:55.144Z,10.05
2023-03-08T07:33:22.410Z,9.45
2023-03-08T07:35:50.041Z,10.77
2023-03-08T07:38:17.526Z,10.15
2023-03-08T07:40:44.688Z,10.88
2023-03-08T07:43:11.869Z,10.98
2023-03-08T07:45:39.681Z,10.80
2023-03-08T07:48:07.476Z,11.65
2023-03-08T07:50:34.931Z,12.48
2023-03-08T07:53:02.144Z,11.82
2023-03-08T07:55:29.254Z,12.80
2023-03-08T07:57:56.406Z,13.00
2023-03-08T08:00:23.613Z,13.90
2023-03-08T08:02:54.025Z,14.45
2023-03-08T08:05:26.550Z,15.07
2023-03-08T08:10:21.009Z,14.70
2023-03-08T08:12:48.105Z,21.70
2023-03-08T08:15:17.388Z,22.75
2023-03-08T08:17:44.577Z,18.98
2023-03-08T08:20:12.091Z,31.02
2023-03-08T08:22:39.239Z,17.30
2023-03-08T08:25:07.076Z,39.70
2023-03-08T08:27:34.632Z,15.93
2023-03-08T08:30:01.901Z,17.35
2023-03-08T08:32:29.096Z,18.50
2023-03-08T08:34:56.173Z,18.98
2023-03-08T08:37:23.367Z,17.67
2023-03-08T08:39:50.461Z,17.95
2023-03-08T08:42:17.613Z,16.95
2023-03-08T08:44:44.733Z,17.35
2023-03-08T08:47:11.844Z,17.08
2023-03-08T08:49:39.271Z,16.55
2023-03-08T08:52:06.448Z,17.05
2023-03-08T08:54:34.265Z,16.98
2023-03-08T08:57:01.461Z,17.55
2023-03-08T08:59:28.705Z,17.15
2023-03-08T09:01:55.955Z,19.23
2023-03-08T09:04:23.245Z,17.73
2023-03-08T09:06:50.433Z,19.55
2023-03-08T09:09:18.356Z,17.77
2023-03-08T09:11:54.594Z,18.65
2023-03-08T09:14:22.583Z,18.08
2023-03-08T09:16:49.829Z,21.63
2023-03-08T09:19:17.026Z,19.98
2023-03-08T09:21:44.179Z,20.25
2023-03-08T09:24:12.073Z,19.35
2023-03-08T09:26:39.418Z,19.10
2023-03-08T09:29:07.568Z,20.17
2023-03-08T09:31:36.187Z,19.85
2023-03-08T09:34:05.170Z,20.23
2023-03-08T09:36:32.330Z,20.33
2023-03-08T09:38:59.479Z,20.38
2023-03-08T09:41:39.625Z,18.80
2023-03-08T09:44:12.746Z,19.88
2023-03-08T09:46:49.191Z,19.02
2023-03-08T09:49:37.136Z,21.02
2023-03-08T09:52:30.926Z,21.48
2023-03-08T09:54:59.920Z,18.60
2023-03-08T09:57:31.517Z,21.73
2023-03-08T10:00:00.161Z,18.13
2023-03-08T10:02:35.204Z,19.35
2023-03-08T10:05:14.214Z,20.58
2023-03-08T10:07:55.794Z,17.70
2023-03-08T10:10:25.919Z,16.67
2023-03-08T10:12:59.740Z,16.65
2023-03-08T10:15:27.793Z,11.95
2023-03-08T10:17:59.599Z,14.18
2023-03-08T10:20:31.948Z,11.80
2023-03-08T10:23:00.437Z,12.55
2023-03-08T10:25:31.228Z,12.80
2023-03-08T10:27:59.472Z,11.35
2023-03-08T10:30:28.215Z,13.10
2023-03-08T10:32:59.531Z,12.30
2023-03-08T10:35:34.748Z,12.27
2023-03-08T10:38:01.899Z,13.68
2023-03-08T10:40:28.965Z,10.98
2023-03-08T10:43:00.923Z,10.85
2023-03-08T10:45:29.481Z,11.13
2023-03-08T10:47:56.608Z,10.20
2023-03-08T10:50:25.588Z,13.77
2023-03-08T10:52:52.735Z,11.35
2023-03-08T10:55:19.874Z,15.45
2023-03-08T10:57:52.895Z,7.18
2023-03-08T11:00:20.008Z,10.18
2023-03-08T11:02:48.245Z,7.90
2023-03-08T11:05:23.055Z,8.95
2023-03-08T11:07:54.098Z,8.43
2023-03-08T11:10:25.428Z,8.50
2023-03-08T11:13:21.816Z,7.90
2023-03-08T11:15:52.468Z,8.07
2023-03-08T11:18:19.530Z,6.93
2023-03-08T11:20:50.122Z,6.80
2023-03-08T11:23:23.559Z,7.30
2023-03-08T11:25:56.515Z,7.32
2023-03-08T11:28:33.369Z,6.25
2023-03-08T11:31:09.404Z,7.72
2023-03-08T11:33:55.248Z,5.80
2023-03-08T11:36:22.572Z,5.50
2023-03-08T11:38:54.989Z,6.78
2023-03-08T11:41:31.692Z,5.20
2023-03-08T11:44:04.697Z,5.38
2023-03-08T11:46:37.942Z,4.93
2023-03-08T11:49:10.768Z,4.18
2023-03-08T11:54:13.802Z,3.75
2023-03-08T11:56:48.403Z,3.15
2023-03-08T11:59:15.637Z,2.97
2023-03-08T12:01:48.347Z,3.30
2023-03-08T12:06:43.804Z,2.80
2023-03-08T12:09:27.865Z,2.47
2023-03-08T12:12:04.094Z,2.15
2023-03-08T12:14:32.779Z,1.70
2023-03-08T12:17:19.090Z,1.73
2023-03-08T12:19:47.648Z,1.90
2023-03-08T12:22:31.229Z,1.60
2023-03-08T12:24:58.393Z,1.60
2023-03-08T12:27:31.165Z,1.50
2023-03-08T12:30:02.897Z,1.20
2023-03-08T12:32:31.029Z,1.25
2023-03-08T12:35:24.459Z,1.10
2023-03-08T12:38:05.885Z,1.10
2023-03-08T12:40:37.991Z,1.02
2023-03-08T12:43:10.526Z,1.40
2023-03-08T12:45:38.063Z,1.23
2023-03-08T12:48:05.180Z,1.10
2023-03-08T12:50:35.782Z,1.20
2023-03-08T12:53:04.084Z,1.33
2023-03-08T12:55:31.866Z,1.00
2023-03-08T12:58:01.311Z,0.82
2023-03-08T13:00:32.615Z,0.80
2023-03-08T13:03:05.560Z,0.98
2023-03-08T13:05:32.800Z,2.92
2023-03-08T13:08:00.717Z,1.23
2023-03-08T13:10:31.540Z,0.80
2023-03-08T13:12:58.714Z,4.13
2023-03-08T13:15:26.962Z,3.88
2023-03-08T13:18:11.656Z,1.48
2023-03-08T13:20:42.293Z,1.00
2023-03-08T13:23:09.566Z,0.80
2023-03-08T13:25:58.768Z,1.05
2023-03-08T13:28:37.750Z,1.10
2023-03-08T13:31:11.766Z,1.17
2023-03-08T13:33:39.708Z,0.63
2023-03-08T13:36:08.222Z,0.70
2023-03-08T13:38:36.700Z,0.98
2023-03-08T13:41:03.862Z,1.20
2023-03-08T13:43:32.058Z,0.68
2023-03-08T13:46:00.663Z,2.33
2023-03-08T13:48:32.223Z,1.67
2023-03-08T13:51:00.246Z,0.80
2023-03-08T13:53:32.442Z,2.75
2023-03-08T13:56:03.812Z,20.90
2023-03-08T13:58:46.196Z,2.08
2023-03-08T14:01:15.268Z,6.13
2023-03-08T14:03:43.695Z,4.90
2023-03-08T14:06:30.912Z,3.67
2023-03-08T14:09:03.530Z,2.58
2023-03-08T14:11:32.456Z,3.88
2023-03-08T14:14:01.402Z,1.45
2023-03-08T14:16:32.681Z,3.67
2023-03-08T14:19:01.058Z,1.50
2023-03-08T14:21:29.473Z,1.15
2023-03-08T14:24:00.950Z,3.13
2023-03-08T14:26:39.117Z,2.75
2023-03-08T14:29:25.745Z,1.65
2023-03-08T14:31:54.529Z,1.33
2023-03-08T14:34:33.965Z,3.22
2023-03-08T14:37:02.856Z,2.00
2023-03-08T14:39:30.672Z,0.75
2023-03-08T14:41:57.829Z,1.30
2023-03-08T14:44:27.684Z,0.80
2023-03-08T14:47:03.724Z,0.70
2023-03-08T14:49:30.902Z,1.05
2023-03-08T14:51:58.139Z,1.10
2023-03-08T14:54:31.708Z,1.08
2023-03-08T14:56:59.529Z,1.20
2023-03-08T14:59:28.199Z,1.58
2023-03-08T15:01:55.682Z,0.85
2023-03-08T15:04:24.798Z,0.75
2023-03-08T15:06:52.700Z,0.88
2023-03-08T15:09:20.501Z,1.70
2023-03-08T15:11:48.534Z,1.25
2023-03-08T15:14:15.692Z,1.10
2023-03-08T15:16:42.827Z,3.25
2023-03-08T15:19:11.975Z,0.70
2023-03-08T15:21:39.185Z,0.60
2023-03-08T15:24:07.030Z,0.90
2023-03-08T15:26:34.652Z,0.77
2023-03-08T15:29:05.250Z,0.50
2023-03-08T15:31:32.391Z,0.90
2023-03-08T15:34:00.511Z,0.90
2023-03-08T15:36:32.515Z,1.02
2023-03-08T15:39:01.289Z,1.27
2023-03-08T15:41:28.407Z,1.00
2023-03-08T15:43:55.539Z,0.63
2023-03-08T15:46:22.637Z,0.60
2023-03-08T15:48:51.011Z,1.60
2023-03-08T15:51:19.304Z,3.92
2023-03-08T15:53:47.007Z,12.15
2023-03-08T15:56:14.096Z,1.60
2023-03-08T15:58:41.656Z,1.60
2023-03-08T16:01:09.027Z,1.15
2023-03-08T16:03:36.445Z,0.98
2023-03-08T16:06:04.055Z,0.55
2023-03-08T16:08:31.345Z,0.90
2023-03-08T16:11:03.850Z,0.65
2023-03-08T16:13:31.293Z,0.60
2023-03-08T16:15:59.621Z,0.40
2023-03-08T16:18:26.777Z,0.75
2023-03-08T16:20:53.994Z,0.63
2023-03-08T16:23:21.145Z,1.52
2023-03-08T16:26:08.570Z,1.20
2023-03-08T16:28:41.021Z,0.75
2023-03-08T16:31:09.151Z,0.93
2023-03-08T16:33:36.710Z,1.08
2023-03-08T16:36:03.940Z,0.80
2023-03-08T16:38:31.170Z,0.50
2023-03-08T16:41:11.509Z,1.08
2023-03-08T16:43:46.370Z,0.90
2023-03-08T16:46:15.146Z,0.70
2023-03-08T16:48:42.348Z,0.80
2023-03-08T16:51:13.747Z,1.10
2023-03-08T16:53:40.940Z,0.85
2023-03-08T16:56:08.094Z,1.20
2023-03-08T16:58:35.220Z,1.58
2023-03-08T17:01:02.420Z,1.33
2023-03-08T17:03:29.822Z,0.90
2023-03-08T17:05:56.911Z,1.38
2023-03-08T17:08:24.027Z,1.73
2023-03-08T17:10:51.141Z,3.58
2023-03-08T17:13:18.248Z,4.68
2023-03-08T17:15:47.080Z,12.32
2023-03-08T17:18:14.628Z,2.97
2023-03-08T17:20:42.430Z,1.73
2023-03-08T17:23:10.579Z,0.73
2023-03-08T17:25:40.892Z,0.60
2023-03-08T17:28:08.769Z,1.08
2023-03-08T17:30:36.296Z,1.20
2023-03-08T17:33:03.405Z,2.30
2023-03-08T17:35:30.651Z,1.45
2023-03-08T17:37:57.861Z,1.10
2023-03-08T17:40:25.106Z,0.90
2023-03-08T17:42:52.321Z,0.82
2023-03-08T17:45:19.792Z,2.90
2023-03-08T17:47:46.912Z,0.93
2023-03-08T17:50:20.757Z,1.50
2023-03-08T17:52:47.901Z,1.25
2023-03-08T17:55:14.984Z,2.85
2023-03-08T17:57:42.180Z,2.63
2023-03-08T18:00:11.916Z,3.40
2023-03-08T18:02:39.156Z,3.00
2023-03-08T18:05:06.742Z,1.55
2023-03-08T18:07:34.056Z,1.30
2023-03-08T18:10:04.302Z,1.50
2023-03-08T18:12:31.418Z,3.42
2023-03-08T18:14:58.669Z,2.83
2023-03-08T18:17:25.847Z,3.47
2023-03-08T18:19:52.932Z,1.63
2023-03-08T18:22:20.053Z,4.63
2023-03-08T18:24:47.211Z,1.98
2023-03-08T18:27:14.297Z,2.08
2023-03-08T18:29:41.473Z,2.47
2023-03-08T18:32:10.105Z,1.67
2023-03-08T18:34:38.685Z,1.92
2023-03-08T18:37:05.825Z,3.65
2023-03-08T18:39:33.008Z,4.97
2023-03-08T18:42:01.262Z,1.45
2023-03-08T18:44:28.423Z,1.10
2023-03-08T18:46:55.725Z,0.90
2023-03-08T18:49:23.053Z,1.10
2023-03-08T18:51:50.314Z,1.20
2023-03-08T18:54:20.462Z,1.00
2023-03-08T18:56:49.988Z,1.27
2023-03-08T18:59:17.144Z,1.50
2023-03-08T19:01:44.616Z,1.20
2023-03-08T19:04:11.788Z,1.60
2023-03-08T19:06:39.023Z,2.33
2023-03-08T19:09:09.922Z,1.23
2023-03-08T19:11:37.108Z,2.40
2023-03-08T19:14:04.292Z,2.17
2023-03-08T19:16:33.328Z,1.83
2023-03-08T19:19:02.387Z,2.35
2023-03-08T19:21:31.003Z,1.40
2023-03-08T19:23:58.152Z,1.80
2023-03-08T19:26:38.765Z,4.38
2023-03-08T19:29:12.131Z,1.48
2023-03-08T19:31:44.032Z,2.67
2023-03-08T19:34:13.146Z,2.97
2023-03-08T19:36:40.601Z,8.50
2023-03-08T19:39:09.254Z,6.47
2023-03-08T19:41:36.417Z,7.95
2023-03-08T19:44:07.100Z,4.35
2023-03-08T19:46:38.209Z,2.00
2023-03-08T19:49:06.307Z,2.22
2023-03-08T19:51:33.828Z,1.30
2023-03-08T19:54:01.162Z,1.20
2023-03-08T19:56:28.231Z,2.08
2023-03-08T19:58:56.775Z,1.48
2023-03-08T20:01:24.198Z,1.27
2023-03-08T20:03:51.326Z,1.55
2023-03-08T20:06:22.463Z,1.27
2023-03-08T20:08:49.852Z,4.07
2023-03-08T20:11:16.991Z,3.85
2023-03-08T20:13:44.150Z,4.90
2023-03-08T20:16:11.344Z,1.42
2023-03-08T20:18:38.427Z,1.05
2023-03-08T20:21:05.676Z,1.20
2023-03-08T20:23:32.860Z,0.80
2023-03-08T20:26:00.589Z,0.93
2023-03-08T20:28:27.733Z,0.88
2023-03-08T20:30:55.139Z,1.20
2023-03-08T20:33:22.294Z,1.10
2023-03-08T20:35:59.416Z,1.20
2023-03-08T20:38:26.912Z,1.90
2023-03-08T20:41:01.616Z,1.50
2023-03-08T20:43:29.338Z,1.42
2023-03-08T20:45:56.859Z,1.23
2023-03-08T20:48:24.346Z,1.70
2023-03-08T20:50:51.550Z,1.58
2023-03-08T20:53:18.838Z,1.35
2023-03-08T20:55:45.932Z,2.20
2023-03-08T20:58:13.037Z,2.30
2023-03-08T21:00:41.465Z,2.20
2023-03-08T21:03:08.853Z,1.90
2023-03-08T21:05:36.038Z,2.08
2023-03-08T21:08:03.845Z,2.20
2023-03-08T21:10:36.449Z,2.53
2023-03-08T21:13:06.419Z,2.25
2023-03-08T21:15:34.332Z,2.28
2023-03-08T21:18:01.738Z,2.25
2023-03-08T21:20:28.877Z,2.63
2023-03-08T21:22:55.944Z,1.67
2023-03-08T21:25:23.096Z,2.53
2023-03-08T21:27:50.262Z,1.77
2023-03-08T21:30:17.375Z,2.15
2023-03-08T21:32:44.516Z,1.98
2023-03-08T21:35:11.675Z,2.05
2023-03-08T21:37:38.813Z,2.40
2023-03-08T21:40:07.171Z,2.72
2023-03-08T21:42:35.504Z,3.00
2023-03-08T21:45:02.693Z,2.58
2023-03-08T21:47:29.829Z,3.05
2023-03-08T21:49:56.969Z,5.28
2023-03-08T21:52:24.160Z,3.63
2023-03-08T21:54:51.339Z,4.20
2023-03-08T21:57:18.463Z,4.25
2023-03-08T21:59:45.528Z,3.45
2023-03-08T22:02:12.746Z,3.33
2023-03-08T22:04:39.927Z,3.40
2023-03-08T22:07:07.143Z,3.63
2023-03-08T22:09:34.265Z,3.90
2023-03-08T22:12:01.534Z,3.00
2023-03-08T22:14:28.849Z,2.63
2023-03-08T22:16:56.522Z,3.38
2023-03-08T22:19:23.736Z,2.97
2023-03-08T22:21:50.856Z,2.72
2023-03-08T22:24:18.093Z,3.40
2023-03-08T22:26:45.258Z,2.92
2023-03-08T22:29:12.312Z,2.80
2023-03-08T22:31:39.392Z,3.38
2023-03-08T22:34:07.756Z,3.45
2023-03-08T22:36:35.221Z,10.45
2023-03-08T22:39:02.332Z,3.42
2023-03-08T22:41:29.570Z,3.75
2023-03-08T22:43:56.735Z,4.00
2023-03-08T22:46:25.324Z,4.90
2023-03-08T22:48:52.968Z,4.30
2023-03-08T22:51:21.488Z,4.50
2023-03-08T22:53:48.611Z,9.63
2023-03-08T22:56:23.015Z,10.50
2023-03-08T22:58:50.561Z,21.13
2023-03-08T23:01:21.910Z,8.75
2023-03-08T23:03:49.853Z,4.28
2023-03-08T23:06:18.202Z,2.75
2023-03-08T23:08:45.353Z,2.45
2023-03-08T23:11:12.442Z,3.40
2023-03-08T23:13:39.627Z,2.28
2023-03-08T23:16:07.445Z,2.42
2023-03-08T23:18:35.294Z,1.90
2023-03-08T23:21:06.021Z,1.70
2023-03-08T23:23:33.472Z,2.10
2023-03-08T23:26:00.726Z,1.55
2023-03-08T23:28:27.891Z,1.77
2023-03-08T23:30:54.961Z,2.80
2023-03-08T23:33:22.141Z,1.77
2023-03-08T23:35:49.863Z,2.28
2023-03-08T23:38:17.164Z,3.10
2023-03-08T23:40:44.333Z,2.33
2023-03-08T23:43:11.468Z,2.10
2023-03-08T23:45:39.732Z,2.67
2023-03-08T23:48:07.301Z,2.50
2023-03-08T23:50:34.479Z,2.80
2023-03-08T23:53:01.640Z,3.10
2023-03-08T23:55:28.715Z,3.05
2023-03-08T23:57:55.779Z,3.17
